createdAt,value
2023-04-16T15:01:08.002Z,101429.81
2023-04-16T15:02:10.841Z,101443.03
2023-04-16T15:03:13.191Z,101437.78
2023-04-16T15:04:15.330Z,101431.59
2023-04-16T15:05:17.504Z,101436.03
2023-04-16T15:06:19.361Z,101439.56
2023-04-16T15:07:22.239Z,101431.66
2023-04-16T15:08:24.712Z,101435.22
2023-04-16T15:09:29.975Z,101435.28
2023-04-16T15:10:32.944Z,101432.66
2023-04-16T15:11:35.119Z,101433.53
2023-04-16T15:12:37.953Z,101437.13
2023-04-16T15:13:40.051Z,101443.38
2023-04-16T15:14:43.388Z,101439.03
2023-04-16T15:15:45.474Z,101435.50
2023-04-16T15:16:48.031Z,101436.44
2023-04-16T15:17:51.096Z,101439.13
2023-04-16T15:18:53.099Z,101437.34
2023-04-16T15:19:55.012Z,101440.91
2023-04-16T15:20:56.961Z,101443.56
2023-04-16T15:21:59.403Z,101435.63
2023-04-16T15:23:01.589Z,101446.22
2023-04-16T15:24:03.629Z,101442.75
2023-04-16T15:25:06.806Z,101448.91
2023-04-16T15:26:08.725Z,101441.03
2023-04-16T15:27:11.979Z,101449.88
2023-04-16T15:28:14.219Z,101443.69
2023-04-16T15:29:16.201Z,101449.91
2023-04-16T15:30:18.230Z,101449.97
2023-04-16T15:31:21.126Z,101447.34
2023-04-16T15:32:23.140Z,101448.25
2023-04-16T15:33:26.396Z,101435.97
2023-04-16T15:34:28.460Z,101454.56
2023-04-16T15:35:30.632Z,101452.78
2023-04-16T15:36:32.694Z,101440.47
2023-04-16T15:37:34.612Z,101452.88
2023-04-16T15:38:36.651Z,101447.56
2023-04-16T15:39:38.604Z,101444.94
2023-04-16T15:40:41.306Z,101449.38
2023-04-16T15:41:57.444Z,101450.28
2023-04-16T15:43:03.028Z,101444.16
2023-04-16T15:44:06.020Z,101448.59
2023-04-16T15:45:07.993Z,101445.97
2023-04-16T15:46:10.184Z,101440.72
2023-04-16T15:47:12.342Z,101444.28
2023-04-16T15:48:14.411Z,101446.09
2023-04-16T15:49:16.472Z,101449.66
2023-04-16T15:50:19.576Z,101448.81
2023-04-16T15:51:21.400Z,101453.25
2023-04-16T15:52:23.386Z,101448.91
2023-04-16T15:53:25.295Z,101452.44
2023-04-16T15:54:27.354Z,101458.63
2023-04-16T15:55:29.381Z,101452.50
2023-04-16T15:56:32.693Z,101460.44
2023-04-16T15:57:34.597Z,101456.06
2023-04-16T15:58:36.662Z,101464.94
2023-04-16T15:59:38.584Z,101463.19
2023-04-16T16:00:40.498Z,101458.78
2023-04-16T16:01:42.422Z,101462.34
2023-04-16T16:02:45.716Z,101463.25
2023-04-16T16:03:47.995Z,101464.16
2023-04-16T16:04:50.018Z,101465.97
2023-04-16T16:05:51.976Z,101463.31
2023-04-16T16:06:54.193Z,101468.63
2023-04-16T16:07:57.445Z,101470.38
2023-04-16T16:08:59.770Z,101465.13
2023-04-16T16:10:02.020Z,101475.72
2023-04-16T16:11:05.124Z,101474.88
2023-04-16T16:12:07.037Z,101474.00
2023-04-16T16:13:13.162Z,101469.59
2023-04-16T16:14:16.793Z,101473.16
2023-04-16T16:15:20.232Z,101477.59
2023-04-16T16:16:22.268Z,101477.63
2023-04-16T16:17:24.966Z,101469.66
2023-04-16T16:18:26.892Z,101468.81
2023-04-16T16:19:28.754Z,101482.97
2023-04-16T16:20:30.697Z,101475.03
2023-04-16T16:21:32.924Z,101480.34
2023-04-16T16:22:35.006Z,101477.69
2023-04-16T16:23:37.118Z,101486.53
2023-04-16T16:24:39.358Z,101479.50
2023-04-16T16:25:42.761Z,101477.75
2023-04-16T16:26:44.659Z,101481.28
2023-04-16T16:27:46.677Z,101478.66
2023-04-16T16:28:48.578Z,101475.16
2023-04-16T16:29:50.505Z,101481.34
2023-04-16T16:30:54.895Z,101481.38
2023-04-16T16:31:57.004Z,101484.03
2023-04-16T16:32:59.008Z,101486.69
2023-04-16T16:34:01.261Z,101484.94
2023-04-16T16:35:03.562Z,101482.28
2023-04-16T16:36:09.681Z,101490.25
2023-04-16T16:37:11.530Z,101488.50
2023-04-16T16:38:13.399Z,101487.66
2023-04-16T16:39:15.215Z,101495.59
2023-04-16T16:40:17.213Z,101495.63
2023-04-16T16:41:19.191Z,101493.84
2023-04-16T16:42:21.214Z,101490.34
2023-04-16T16:43:23.177Z,101493.88
2023-04-16T16:44:25.237Z,101483.31
2023-04-16T16:45:27.339Z,101486.84
2023-04-16T16:46:29.696Z,101486.88
2023-04-16T16:47:32.508Z,101485.97
2023-04-16T16:48:34.322Z,101487.72
2023-04-16T16:49:36.153Z,101487.75
2023-04-16T16:50:38.154Z,101489.53
2023-04-16T16:51:40.255Z,101489.53
2023-04-16T16:52:42.231Z,101487.78
2023-04-16T16:53:44.058Z,101493.97
2023-04-16T16:54:45.983Z,101484.31
2023-04-16T16:55:47.835Z,101486.06
2023-04-16T16:56:49.694Z,101494.03
2023-04-16T16:57:51.708Z,101488.75
2023-04-16T16:58:53.876Z,101492.28
2023-04-16T16:59:55.742Z,101484.34
2023-04-16T17:00:57.897Z,101487.03
2023-04-16T17:01:59.792Z,101495.81
2023-04-16T17:03:02.150Z,101485.25
2023-04-16T17:04:04.367Z,101493.19
2023-04-16T17:05:07.730Z,101496.72
2023-04-16T17:06:09.727Z,101494.97
2023-04-16T17:07:12.048Z,101492.34
2023-04-16T17:08:14.098Z,101496.72
2023-04-16T17:09:16.953Z,101502.91
2023-04-16T17:10:22.131Z,101502.94
2023-04-16T17:11:27.077Z,101497.66
2023-04-16T17:12:29.116Z,101502.97
2023-04-16T17:13:32.840Z,101499.44
2023-04-16T17:14:35.531Z,101497.66
2023-04-16T17:15:37.442Z,101504.72
2023-04-16T17:16:39.486Z,101502.09
2023-04-16T17:17:41.767Z,101498.56
2023-04-16T17:18:43.809Z,101503.84
2023-04-16T17:19:45.630Z,101502.94
2023-04-16T17:20:47.405Z,101508.25
2023-04-16T17:21:49.461Z,101506.50
2023-04-16T17:22:51.315Z,101504.75
2023-04-16T17:23:54.567Z,101506.50
2023-04-16T17:24:56.384Z,101504.75
2023-04-16T17:25:59.924Z,101501.22
2023-04-16T17:27:02.253Z,101508.28
2023-04-16T17:28:05.196Z,101502.97
2023-04-16T17:29:07.217Z,101504.75
2023-04-16T17:30:09.597Z,101508.25
2023-04-16T17:31:11.990Z,101511.81
2023-04-16T17:32:14.003Z,101509.19
2023-04-16T17:33:17.330Z,101510.06
2023-04-16T17:34:20.697Z,101517.97
2023-04-16T17:35:22.712Z,101520.66
2023-04-16T17:36:25.526Z,101518.88
2023-04-16T17:37:27.539Z,101514.47
2023-04-16T17:38:29.434Z,101518.88
2023-04-16T17:39:31.304Z,101525.06
2023-04-16T17:40:33.329Z,101512.75
2023-04-16T17:41:35.285Z,101509.19
2023-04-16T17:42:37.390Z,101512.72
2023-04-16T17:43:39.194Z,101526.84
2023-04-16T17:44:41.159Z,101524.19
2023-04-16T17:45:43.058Z,101508.34
2023-04-16T17:46:44.947Z,101513.63
2023-04-16T17:47:46.845Z,101516.28
2023-04-16T17:48:49.014Z,101518.91
2023-04-16T17:49:54.647Z,101512.75
2023-04-16T17:50:56.681Z,101519.81
2023-04-16T17:51:58.627Z,101510.13
2023-04-16T17:53:03.906Z,101518.03
2023-04-16T17:54:07.290Z,101511.91
2023-04-16T17:55:11.577Z,101508.38
2023-04-16T17:56:14.220Z,101516.28
2023-04-16T17:57:16.559Z,101513.66
2023-04-16T17:58:18.474Z,101514.56
2023-04-16T17:59:20.324Z,101515.44
2023-04-16T18:00:22.381Z,101517.19
2023-04-16T18:01:24.431Z,101522.50
2023-04-16T18:02:26.662Z,101520.72
2023-04-16T18:03:29.188Z,101523.38
2023-04-16T18:04:31.450Z,101518.97
2023-04-16T18:05:33.391Z,101518.09
2023-04-16T18:06:35.699Z,101525.13
2023-04-16T18:07:39.249Z,101522.53
2023-04-16T18:08:41.135Z,101530.44
2023-04-16T18:09:43.218Z,101527.78
2023-04-16T18:10:45.114Z,101527.81
2023-04-16T18:11:47.331Z,101526.94
2023-04-16T18:12:49.286Z,101527.81
2023-04-16T18:13:53.695Z,101526.03
2023-04-16T18:14:55.647Z,101523.41
2023-04-16T18:15:57.498Z,101532.22
2023-04-16T18:17:00.035Z,101526.03
2023-04-16T18:18:01.909Z,101523.41
2023-04-16T18:19:03.940Z,101526.03
2023-04-16T18:20:07.119Z,101526.06
2023-04-16T18:21:09.315Z,101528.69
2023-04-16T18:22:13.330Z,101529.59
2023-04-16T18:23:15.137Z,101527.81
2023-04-16T18:24:16.999Z,101529.59
2023-04-16T18:25:21.034Z,101524.31
2023-04-16T18:26:35.539Z,101526.06
2023-04-16T18:27:38.060Z,101532.22
2023-04-16T18:28:40.024Z,101531.34
2023-04-16T18:29:45.018Z,101527.81
2023-04-16T18:30:47.210Z,101533.97
2023-04-16T18:31:50.665Z,101533.13
2023-04-16T18:33:16.464Z,101528.72
2023-04-16T18:34:14.363Z,101534.88
2023-04-16T18:35:16.501Z,101520.81
2023-04-16T18:36:18.413Z,101527.84
2023-04-16T18:37:20.352Z,101523.47
2023-04-16T18:38:22.152Z,101529.59
2023-04-16T18:39:24.107Z,101526.09
2023-04-16T18:40:26.168Z,101528.72
2023-04-16T18:41:28.159Z,101527.88
2023-04-16T18:42:29.969Z,101534.88
2023-04-16T18:43:31.792Z,101530.50
2023-04-16T18:44:34.312Z,101535.75
2023-04-16T18:45:36.535Z,101531.38
2023-04-16T18:46:38.373Z,101531.38
2023-04-16T18:47:41.397Z,101528.72
2023-04-16T18:48:45.252Z,101535.75
2023-04-16T18:49:47.172Z,101526.97
2023-04-16T18:50:48.961Z,101528.72
2023-04-16T18:51:51.176Z,101532.19
2023-04-16T18:52:53.171Z,101532.19
2023-04-16T18:53:55.051Z,101533.94
2023-04-16T18:54:56.918Z,101535.72
2023-04-16T18:55:59.589Z,101528.69
2023-04-16T18:57:02.133Z,101529.53
2023-04-16T18:58:04.040Z,101532.19
2023-04-16T18:59:05.936Z,101531.31
2023-04-16T19:00:12.639Z,101532.19
2023-04-16T19:01:14.705Z,101532.19
2023-04-16T19:02:16.632Z,101535.75
2023-04-16T19:03:18.520Z,101541.94
2023-04-16T19:04:21.071Z,101536.63
2023-04-16T19:05:23.143Z,101538.41
2023-04-16T19:06:25.021Z,101537.50
2023-04-16T19:07:26.970Z,101541.94
2023-04-16T19:08:28.821Z,101534.00
2023-04-16T19:09:30.861Z,101535.78
2023-04-16T19:10:32.848Z,101536.63
2023-04-16T19:11:34.700Z,101537.50
2023-04-16T19:12:36.622Z,101531.38
2023-04-16T19:13:39.330Z,101533.13
2023-04-16T19:14:41.174Z,101533.09
2023-04-16T19:15:43.029Z,101541.00
2023-04-16T19:16:44.887Z,101535.72
2023-04-16T19:17:47.288Z,101539.25
2023-04-16T19:18:49.206Z,101536.59
2023-04-16T19:19:51.044Z,101534.81
2023-04-16T19:20:59.631Z,101534.81
2023-04-16T19:22:01.664Z,101533.94
2023-04-16T19:23:05.741Z,101536.59
2023-04-16T19:24:07.520Z,101538.34
2023-04-16T19:25:09.848Z,101534.81
2023-04-16T19:26:11.673Z,101531.31
2023-04-16T19:27:13.537Z,101543.59
2023-04-16T19:28:15.396Z,101538.31
2023-04-16T19:29:18.295Z,101533.94
2023-04-16T19:30:20.207Z,101540.94
2023-04-16T19:31:22.047Z,101535.66
2023-04-16T19:32:24.440Z,101540.06
2023-04-16T19:33:26.314Z,101534.78
2023-04-16T19:34:28.281Z,101535.69
2023-04-16T19:35:30.306Z,101536.53
2023-04-16T19:36:32.837Z,101543.56
2023-04-16T19:37:34.674Z,101540.94
2023-04-16T19:38:36.507Z,101538.31
2023-04-16T19:39:38.725Z,101543.56
2023-04-16T19:40:41.159Z,101544.47
2023-04-16T19:41:43.112Z,101548.00
2023-04-16T19:42:45.509Z,101541.81
2023-04-16T19:43:47.372Z,101546.22
2023-04-16T19:44:49.189Z,101547.06
2023-04-16T19:45:53.525Z,101550.59
2023-04-16T19:46:55.871Z,101550.59
2023-04-16T19:47:58.154Z,101547.97
2023-04-16T19:49:00.083Z,101550.59
2023-04-16T19:50:02.335Z,101544.41
2023-04-16T19:51:05.766Z,101548.81
2023-04-16T19:52:07.683Z,101548.78
2023-04-16T19:53:09.858Z,101547.03
2023-04-16T19:54:13.275Z,101543.47
2023-04-16T19:55:15.507Z,101550.50
2023-04-16T19:56:17.749Z,101548.75
2023-04-16T19:57:19.684Z,101548.75
2023-04-16T19:58:21.536Z,101544.38
2023-04-16T19:59:23.469Z,101539.13
2023-04-16T20:00:25.491Z,101547.88
2023-04-16T20:01:28.268Z,101549.63
2023-04-16T20:02:30.241Z,101554.91
2023-04-16T20:03:32.196Z,101552.28
2023-04-16T20:04:35.197Z,101550.50
2023-04-16T20:05:37.329Z,101550.53
2023-04-16T20:06:39.178Z,101547.91
2023-04-16T20:07:41.087Z,101547.91
2023-04-16T20:08:44.605Z,101548.78
2023-04-16T20:09:52.049Z,101547.88
2023-04-16T20:10:54.832Z,101555.78
2023-04-16T20:11:58.100Z,101548.75
2023-04-16T20:12:59.913Z,101553.16
2023-04-16T20:14:01.843Z,101547.84
2023-04-16T20:15:04.542Z,101547.88
2023-04-16T20:16:09.442Z,101545.25
2023-04-16T20:17:11.365Z,101548.75
2023-04-16T20:18:13.685Z,101550.50
2023-04-16T20:19:17.196Z,101549.63
2023-04-16T20:20:19.224Z,101551.38
2023-04-16T20:21:21.768Z,101550.50
2023-04-16T20:22:23.654Z,101551.38
2023-04-16T20:23:25.570Z,101556.66
2023-04-16T20:24:28.320Z,101553.97
2023-04-16T20:25:30.154Z,101555.75
2023-04-16T20:26:34.213Z,101553.09
2023-04-16T20:27:36.434Z,101553.94
2023-04-16T20:28:38.266Z,101556.56
2023-04-16T20:29:40.212Z,101559.19
2023-04-16T20:30:42.449Z,101557.44
2023-04-16T20:31:46.123Z,101556.56
2023-04-16T20:32:48.419Z,101566.22
2023-04-16T20:33:50.364Z,101564.44
2023-04-16T20:34:52.934Z,101562.69
2023-04-16T20:35:55.016Z,101558.31
2023-04-16T20:36:58.224Z,101558.28
2023-04-16T20:38:00.785Z,101554.78
2023-04-16T20:39:02.687Z,101566.22
2023-04-16T20:40:07.983Z,101564.47
2023-04-16T20:41:14.669Z,101559.16
2023-04-16T20:42:17.056Z,101559.16
2023-04-16T20:43:18.921Z,101564.41
2023-04-16T20:44:26.225Z,101562.63
2023-04-16T20:45:38.136Z,101566.97
2023-04-16T20:46:40.367Z,101563.44
2023-04-16T20:47:43.711Z,101558.16
2023-04-16T20:48:45.752Z,101559.03
2023-04-16T20:49:47.650Z,101567.78
2023-04-16T20:50:49.401Z,101569.53
2023-04-16T20:51:51.506Z,101562.53
2023-04-16T20:52:53.441Z,101566.88
2023-04-16T20:53:55.639Z,101558.09
2023-04-16T20:54:57.957Z,101561.59
2023-04-16T20:56:00.637Z,101557.22
2023-04-16T20:57:04.892Z,101558.97
2023-04-16T20:58:07.125Z,101558.09
2023-04-16T20:59:09.885Z,101555.50
2023-04-16T21:00:12.479Z,101563.41
2023-04-16T21:01:14.268Z,101559.91
2023-04-16T21:02:16.514Z,101562.56
2023-04-16T21:03:19.172Z,101576.59
2023-04-16T21:04:21.367Z,101556.41
2023-04-16T21:05:23.984Z,101563.44
2023-04-16T21:06:25.832Z,101563.41
2023-04-16T21:07:27.828Z,101567.84
2023-04-16T21:08:29.775Z,101562.56
2023-04-16T21:09:31.810Z,101567.84
2023-04-16T21:10:33.662Z,101570.50
2023-04-16T21:11:35.978Z,101569.59
2023-04-16T21:12:37.929Z,101571.38
2023-04-16T21:13:39.722Z,101579.25
2023-04-16T21:14:41.635Z,101568.69
2023-04-16T21:15:45.676Z,101571.31
2023-04-16T21:16:47.387Z,101569.56
2023-04-16T21:17:49.225Z,101578.31
2023-04-16T21:18:51.060Z,101577.41
2023-04-16T21:19:53.027Z,101576.50
2023-04-16T21:20:56.086Z,101574.75
2023-04-16T21:21:58.068Z,101576.50
2023-04-16T21:23:00.440Z,101569.47
2023-04-16T21:24:02.312Z,101578.22
2023-04-16T21:25:04.572Z,101580.84
2023-04-16T21:26:06.360Z,101583.44
2023-04-16T21:27:08.314Z,101576.38
2023-04-16T21:28:10.145Z,101580.75
2023-04-16T21:29:12.250Z,101590.38
2023-04-16T21:30:14.773Z,101579.81
2023-04-16T21:31:16.967Z,101584.19
2023-04-16T21:32:18.920Z,101585.03
2023-04-16T21:33:20.944Z,101578.88
2023-04-16T21:34:22.742Z,101585.88
2023-04-16T21:35:24.661Z,101585.88
2023-04-16T21:36:27.650Z,101585.00
2023-04-16T21:37:29.604Z,101586.75
2023-04-16T21:38:31.476Z,101587.63
2023-04-16T21:39:33.317Z,101588.50
2023-04-16T21:40:35.143Z,101577.16
2023-04-16T21:41:37.229Z,101583.22
2023-04-16T21:42:42.494Z,101581.44
2023-04-16T21:43:44.329Z,101573.50
2023-04-16T21:44:46.633Z,101577.88
2023-04-16T21:45:48.437Z,101575.22
2023-04-16T21:46:50.561Z,101573.47
2023-04-16T21:47:52.540Z,101577.84
2023-04-16T21:48:54.438Z,101579.59
2023-04-16T21:49:56.261Z,101579.59
2023-04-16T21:51:00.150Z,101581.34
2023-04-16T21:52:02.536Z,101581.34
2023-04-16T21:53:06.698Z,101581.34
2023-04-16T21:54:08.776Z,101588.31
2023-04-16T21:55:10.620Z,101583.88
2023-04-16T21:56:12.586Z,101588.19
2023-04-16T21:57:14.844Z,101584.66
2023-04-16T21:58:16.817Z,101586.44
2023-04-16T21:59:18.742Z,101588.19
2023-04-16T22:00:21.321Z,101589.91
2023-04-16T22:01:23.400Z,101588.16
2023-04-16T22:02:25.533Z,101595.09
2023-04-16T22:03:28.151Z,101595.94
2023-04-16T22:04:37.522Z,101593.25
2023-04-16T22:05:39.438Z,101591.47
2023-04-16T22:06:41.324Z,101590.56
2023-04-16T22:07:43.253Z,101600.13
2023-04-16T22:08:45.120Z,101589.63
2023-04-16T22:09:46.993Z,101591.38
2023-04-16T22:10:48.799Z,101595.69
2023-04-16T22:11:52.643Z,101600.06
2023-04-16T22:12:55.023Z,101594.84
2023-04-16T22:13:58.027Z,101592.28
2023-04-16T22:15:02.884Z,101598.44
2023-04-16T22:16:05.816Z,101596.72
2023-04-16T22:17:09.496Z,101594.91
2023-04-16T22:18:11.747Z,101597.47
2023-04-16T22:19:14.228Z,101607.88
2023-04-16T22:20:16.617Z,101610.38
2023-04-16T22:21:18.451Z,101601.47
2023-04-16T22:22:21.922Z,101598.75
2023-04-16T22:23:25.302Z,101603.00
2023-04-16T22:24:28.319Z,101603.84
2023-04-16T22:25:30.120Z,101608.09
2023-04-16T22:26:31.937Z,101602.81
2023-04-16T22:27:34.299Z,101607.09
2023-04-16T22:28:36.187Z,101606.19
2023-04-16T22:29:38.268Z,101602.63
2023-04-16T22:30:40.319Z,101607.88
2023-04-16T22:31:42.183Z,101607.88
2023-04-16T22:32:44.123Z,101608.81
2023-04-16T22:33:45.950Z,101606.25
2023-04-16T22:34:47.782Z,101608.94
2023-04-16T22:35:49.718Z,101604.63
2023-04-16T22:36:51.514Z,101613.47
2023-04-16T22:37:53.336Z,101610.84
2023-04-16T22:38:55.335Z,101613.44
2023-04-16T22:39:57.110Z,101608.09
2023-04-16T22:40:59.150Z,101609.81
2023-04-16T22:42:01.976Z,101614.97
2023-04-16T22:43:03.991Z,101612.31
2023-04-16T22:44:06.011Z,101615.66
2023-04-16T22:45:08.549Z,101612.13
2023-04-16T22:46:10.466Z,101620.84
2023-04-16T22:47:12.322Z,101617.28
2023-04-16T22:48:14.234Z,101618.97
2023-04-16T22:49:16.024Z,101617.19
2023-04-16T22:50:18.580Z,101619.84
2023-04-16T22:51:24.354Z,101616.41
2023-04-16T22:52:27.576Z,101617.28
2023-04-16T22:53:29.369Z,101619.91
2023-04-16T22:54:31.565Z,101619.94
2023-04-16T22:55:33.463Z,101618.19
2023-04-16T22:56:35.879Z,101616.50
2023-04-16T22:57:37.684Z,101614.84
2023-04-16T22:58:39.751Z,101616.63
2023-04-16T22:59:41.592Z,101616.69
2023-04-16T23:00:43.647Z,101614.97
2023-04-16T23:01:45.637Z,101620.22
2023-04-16T23:02:47.992Z,101607.88
2023-04-16T23:03:50.052Z,101613.94
2023-04-16T23:04:51.867Z,101617.34
2023-04-16T23:05:53.781Z,101616.41
2023-04-16T23:06:55.948Z,101612.78
2023-04-16T23:07:57.789Z,101618.78
2023-04-16T23:08:59.691Z,101616.13
2023-04-16T23:10:01.586Z,101613.44
2023-04-16T23:11:03.767Z,101623.03
2023-04-16T23:12:06.043Z,101616.91
2023-04-16T23:13:07.879Z,101617.78
2023-04-16T23:14:09.866Z,101619.53
2023-04-16T23:15:11.795Z,101625.66
2023-04-16T23:16:13.856Z,101623.91
2023-04-16T23:17:15.911Z,101630.03
2023-04-16T23:18:17.864Z,101616.94
2023-04-16T23:19:19.729Z,101624.88
2023-04-16T23:20:21.697Z,101625.78
2023-04-16T23:21:23.637Z,101620.47
2023-04-16T23:22:25.474Z,101626.50
2023-04-16T23:23:27.394Z,101627.25
2023-04-16T23:24:29.306Z,101627.16
2023-04-16T23:25:31.148Z,101638.41
2023-04-16T23:26:33.091Z,101633.06
2023-04-16T23:27:35.887Z,101622.47
2023-04-16T23:28:37.724Z,101630.31
2023-04-16T23:29:39.846Z,101628.56
2023-04-16T23:30:41.703Z,101624.25
2023-04-16T23:31:43.574Z,101628.69
2023-04-16T23:32:45.511Z,101633.09
2023-04-16T23:33:47.666Z,101633.09
2023-04-16T23:34:49.617Z,101633.06
2023-04-16T23:35:51.515Z,101625.97
2023-04-16T23:36:53.553Z,101635.56
2023-04-16T23:37:55.412Z,101633.00
2023-04-16T23:38:57.243Z,101637.38
2023-04-16T23:39:59.024Z,101637.47
2023-04-16T23:41:01.056Z,101632.34
2023-04-16T23:42:03.308Z,101632.41
2023-04-16T23:43:05.148Z,101629.81
2023-04-16T23:44:06.954Z,101633.38
2023-04-16T23:45:09.810Z,101632.53
2023-04-16T23:46:12.054Z,101630.84
2023-04-16T23:47:13.906Z,101641.38
2023-04-16T23:48:15.923Z,101634.41
2023-04-16T23:49:17.817Z,101637.84
2023-04-16T23:50:19.686Z,101628.22
2023-04-16T23:51:21.674Z,101636.97
2023-04-16T23:52:23.469Z,101634.34
2023-04-16T23:53:25.643Z,101640.41
2023-04-16T23:54:27.562Z,101638.59
2023-04-16T23:55:29.450Z,101642.88
2023-04-16T23:56:31.543Z,101638.47
2023-04-16T23:57:33.331Z,101641.97
2023-04-16T23:58:35.256Z,101639.28
2023-04-16T23:59:37.023Z,101636.59
